sensor_id;sensor_type;location;lat;lon;timestamp;temperature;humidity
8856;DHT22;4464;50.882;4.730;2023-04-15T00:00:28;9.90;99.90
8856;DHT22;4464;50.882;4.730;2023-04-15T00:02:56;9.80;99.90
8856;DHT22;4464;50.882;4.730;2023-04-15T00:05:24;9.80;99.90
8856;DHT22;4464;50.882;4.730;2023-04-15T00:07:50;9.80;99.90
8856;DHT22;4464;50.882;4.730;2023-04-15T00:10:16;9.80;99.90
8856;DHT22;4464;50.882;4.730;2023-04-15T00:12:44;9.90;99.90
8856;DHT22;4464;50.882;4.730;2023-04-15T00:15:10;9.90;99.90
8856;DHT22;4464;50.882;4.730;2023-04-15T00:17:41;9.90;99.90
8856;DHT22;4464;50.882;4.730;2023-04-15T00:20:07;9.90;99.90
8856;DHT22;4464;50.882;4.730;2023-04-15T00:22:33;9.90;99.90
8856;DHT22;4464;50.882;4.730;2023-04-15T00:24:59;10.00;99.90
8856;DHT22;4464;50.882;4.730;2023-04-15T00:27:25;10.00;99.90
8856;DHT22;4464;50.882;4.730;2023-04-15T00:29:50;10.00;99.90
8856;DHT22;4464;50.882;4.730;2023-04-15T00:32:18;10.00;99.90
8856;DHT22;4464;50.882;4.730;2023-04-15T00:34:47;9.90;99.90
8856;DHT22;4464;50.882;4.730;2023-04-15T00:37:16;9.90;99.90
8856;DHT22;4464;50.882;4.730;2023-04-15T00:39:42;10.00;99.90
8856;DHT22;4464;50.882;4.730;2023-04-15T00:42:09;10.10;99.90
8856;DHT22;4464;50.882;4.730;2023-04-15T00:44:35;10.10;99.90
8856;DHT22;4464;50.882;4.730;2023-04-15T00:47:03;10.10;99.90
8856;DHT22;4464;50.882;4.730;2023-04-15T00:49:29;10.10;99.90
8856;DHT22;4464;50.882;4.730;2023-04-15T00:51:58;10.10;99.90
8856;DHT22;4464;50.882;4.730;2023-04-15T00:54:24;10.00;99.90
8856;DHT22;4464;50.882;4.730;2023-04-15T00:56:50;9.90;99.90
8856;DHT22;4464;50.882;4.730;2023-04-15T00:59:17;10.00;99.90
8856;DHT22;4464;50.882;4.730;2023-04-15T01:01:43;9.90;99.90
8856;DHT22;4464;50.882;4.730;2023-04-15T01:04:09;9.80;99.90
8856;DHT22;4464;50.882;4.730;2023-04-15T01:06:36;9.70;99.90
8856;DHT22;4464;50.882;4.730;2023-04-15T01:09:02;9.70;99.90
8856;DHT22;4464;50.882;4.730;2023-04-15T01:11:28;9.60;99.90
8856;DHT22;4464;50.882;4.730;2023-04-15T01:13:58;9.50;99.90
8856;DHT22;4464;50.882;4.730;2023-04-15T01:16:24;9.50;99.90
8856;DHT22;4464;50.882;4.730;2023-04-15T01:18:51;9.60;99.90
8856;DHT22;4464;50.882;4.730;2023-04-15T01:21:17;9.70;99.90
8856;DHT22;4464;50.882;4.730;2023-04-15T01:23:46;9.70;99.90
8856;DHT22;4464;50.882;4.730;2023-04-15T01:26:17;9.90;99.90
8856;DHT22;4464;50.882;4.730;2023-04-15T01:28:42;9.90;99.90
8856;DHT22;4464;50.882;4.730;2023-04-15T01:31:11;9.80;99.90
8856;DHT22;4464;50.882;4.730;2023-04-15T01:33:39;9.80;99.90
8856;DHT22;4464;50.882;4.730;2023-04-15T01:36:05;9.90;99.90
8856;DHT22;4464;50.882;4.730;2023-04-15T01:38:33;9.90;99.90
8856;DHT22;4464;50.882;4.730;2023-04-15T01:41:01;9.90;99.90
8856;DHT22;4464;50.882;4.730;2023-04-15T01:43:29;9.90;99.90
8856;DHT22;4464;50.882;4.730;2023-04-15T01:45:55;9.90;99.90
8856;DHT22;4464;50.882;4.730;2023-04-15T01:48:21;9.80;99.90
8856;DHT22;4464;50.882;4.730;2023-04-15T01:50:47;10.00;99.90
8856;DHT22;4464;50.882;4.730;2023-04-15T01:53:13;10.00;99.90
8856;DHT22;4464;50.882;4.730;2023-04-15T01:55:40;10.00;99.90
8856;DHT22;4464;50.882;4.730;2023-04-15T01:58:06;9.80;99.90
8856;DHT22;4464;50.882;4.730;2023-04-15T02:00:34;9.80;99.90
8856;DHT22;4464;50.882;4.730;2023-04-15T02:02:59;9.70;99.90
8856;DHT22;4464;50.882;4.730;2023-04-15T02:05:27;9.80;99.90
8856;DHT22;4464;50.882;4.730;2023-04-15T02:07:56;9.80;99.90
8856;DHT22;4464;50.882;4.730;2023-04-15T02:10:24;9.80;99.90
8856;DHT22;4464;50.882;4.730;2023-04-15T02:12:50;9.90;99.90
8856;DHT22;4464;50.882;4.730;2023-04-15T02:15:15;9.90;99.90
8856;DHT22;4464;50.882;4.730;2023-04-15T02:17:41;9.80;99.90
8856;DHT22;4464;50.882;4.730;2023-04-15T02:20:10;9.80;99.90
8856;DHT22;4464;50.882;4.730;2023-04-15T02:22:36;9.80;99.90
8856;DHT22;4464;50.882;4.730;2023-04-15T02:25:02;9.90;99.90
8856;DHT22;4464;50.882;4.730;2023-04-15T02:27:28;9.90;99.90
8856;DHT22;4464;50.882;4.730;2023-04-15T02:29:55;9.80;99.90
8856;DHT22;4464;50.882;4.730;2023-04-15T02:32:23;9.80;99.90
8856;DHT22;4464;50.882;4.730;2023-04-15T02:34:51;9.80;99.90
8856;DHT22;4464;50.882;4.730;2023-04-15T02:37:17;9.70;99.90
8856;DHT22;4464;50.882;4.730;2023-04-15T02:39:47;9.60;99.90
8856;DHT22;4464;50.882;4.730;2023-04-15T02:42:13;9.60;99.90
8856;DHT22;4464;50.882;4.730;2023-04-15T02:44:38;9.60;99.90
8856;DHT22;4464;50.882;4.730;2023-04-15T02:47:04;9.60;99.90
8856;DHT22;4464;50.882;4.730;2023-04-15T02:49:31;9.50;99.90
8856;DHT22;4464;50.882;4.730;2023-04-15T02:51:57;9.50;99.90
8856;DHT22;4464;50.882;4.730;2023-04-15T02:54:25;9.50;99.90
8856;DHT22;4464;50.882;4.730;2023-04-15T02:56:53;9.60;99.90
8856;DHT22;4464;50.882;4.730;2023-04-15T02:59:20;9.60;99.90
8856;DHT22;4464;50.882;4.730;2023-04-15T03:01:46;9.60;99.90
8856;DHT22;4464;50.882;4.730;2023-04-15T03:04:14;9.70;99.90
8856;DHT22;4464;50.882;4.730;2023-04-15T03:06:40;9.70;99.90
8856;DHT22;4464;50.882;4.730;2023-04-15T03:09:06;9.80;99.90
8856;DHT22;4464;50.882;4.730;2023-04-15T03:11:38;9.70;99.90
8856;DHT22;4464;50.882;4.730;2023-04-15T03:14:05;9.60;99.90
8856;DHT22;4464;50.882;4.730;2023-04-15T03:16:30;9.60;99.90
8856;DHT22;4464;50.882;4.730;2023-04-15T03:18:56;9.70;99.90
8856;DHT22;4464;50.882;4.730;2023-04-15T03:21:22;9.70;99.90
8856;DHT22;4464;50.882;4.730;2023-04-15T03:23:51;9.70;99.90
8856;DHT22;4464;50.882;4.730;2023-04-15T03:26:27;9.60;99.90
8856;DHT22;4464;50.882;4.730;2023-04-15T03:28:56;9.50;99.90
8856;DHT22;4464;50.882;4.730;2023-04-15T03:31:22;9.50;99.90
8856;DHT22;4464;50.882;4.730;2023-04-15T03:33:48;9.60;99.90
8856;DHT22;4464;50.882;4.730;2023-04-15T03:36:14;9.60;99.90
8856;DHT22;4464;50.882;4.730;2023-04-15T03:38:40;9.60;99.90
8856;DHT22;4464;50.882;4.730;2023-04-15T03:41:06;9.60;99.90
8856;DHT22;4464;50.882;4.730;2023-04-15T03:43:32;9.50;99.90
8856;DHT22;4464;50.882;4.730;2023-04-15T03:45:57;9.50;99.90
8856;DHT22;4464;50.882;4.730;2023-04-15T03:48:23;9.40;99.90
8856;DHT22;4464;50.882;4.730;2023-04-15T03:50:49;9.40;99.90
8856;DHT22;4464;50.882;4.730;2023-04-15T03:53:14;9.30;99.90
8856;DHT22;4464;50.882;4.730;2023-04-15T03:55:42;9.30;99.90
8856;DHT22;4464;50.882;4.730;2023-04-15T03:58:09;9.30;99.90
8856;DHT22;4464;50.882;4.730;2023-04-15T04:00:37;9.30;99.90
8856;DHT22;4464;50.882;4.730;2023-04-15T04:03:05;9.30;99.90
8856;DHT22;4464;50.882;4.730;2023-04-15T04:05:31;9.20;99.90
8856;DHT22;4464;50.882;4.730;2023-04-15T04:07:57;9.40;99.90
8856;DHT22;4464;50.882;4.730;2023-04-15T04:10:22;9.40;99.90
8856;DHT22;4464;50.882;4.730;2023-04-15T04:12:48;9.40;99.90
8856;DHT22;4464;50.882;4.730;2023-04-15T04:15:14;9.40;99.90
8856;DHT22;4464;50.882;4.730;2023-04-15T04:17:40;9.40;99.90
8856;DHT22;4464;50.882;4.730;2023-04-15T04:20:09;9.40;99.90
8856;DHT22;4464;50.882;4.730;2023-04-15T04:22:38;9.40;99.90
8856;DHT22;4464;50.882;4.730;2023-04-15T04:25:06;9.40;99.90
8856;DHT22;4464;50.882;4.730;2023-04-15T04:27:33;9.30;99.90
8856;DHT22;4464;50.882;4.730;2023-04-15T04:29:59;9.10;99.90
8856;DHT22;4464;50.882;4.730;2023-04-15T04:32:27;9.00;99.90
8856;DHT22;4464;50.882;4.730;2023-04-15T04:34:53;9.00;99.90
8856;DHT22;4464;50.882;4.730;2023-04-15T04:37:21;9.10;99.90
8856;DHT22;4464;50.882;4.730;2023-04-15T04:39:48;9.20;99.90
8856;DHT22;4464;50.882;4.730;2023-04-15T04:42:13;9.20;99.90
8856;DHT22;4464;50.882;4.730;2023-04-15T04:44:39;9.20;99.90
8856;DHT22;4464;50.882;4.730;2023-04-15T04:47:07;9.20;99.90
8856;DHT22;4464;50.882;4.730;2023-04-15T04:49:33;9.10;99.90
8856;DHT22;4464;50.882;4.730;2023-04-15T04:51:58;9.10;99.90
8856;DHT22;4464;50.882;4.730;2023-04-15T04:54:24;9.10;99.90
8856;DHT22;4464;50.882;4.730;2023-04-15T04:56:50;9.20;99.90
8856;DHT22;4464;50.882;4.730;2023-04-15T04:59:16;9.10;99.90
8856;DHT22;4464;50.882;4.730;2023-04-15T05:01:42;9.00;99.90
8856;DHT22;4464;50.882;4.730;2023-04-15T05:04:07;9.00;99.90
8856;DHT22;4464;50.882;4.730;2023-04-15T05:06:33;8.90;99.90
8856;DHT22;4464;50.882;4.730;2023-04-15T05:09:01;8.90;99.90
8856;DHT22;4464;50.882;4.730;2023-04-15T05:11:30;8.70;99.90
8856;DHT22;4464;50.882;4.730;2023-04-15T05:13:56;8.70;99.90
8856;DHT22;4464;50.882;4.730;2023-04-15T05:16:22;8.80;99.90
8856;DHT22;4464;50.882;4.730;2023-04-15T05:18:52;8.80;99.90
8856;DHT22;4464;50.882;4.730;2023-04-15T05:21:19;8.80;99.90
8856;DHT22;4464;50.882;4.730;2023-04-15T05:23:47;8.80;99.90
8856;DHT22;4464;50.882;4.730;2023-04-15T05:26:13;8.80;99.90
8856;DHT22;4464;50.882;4.730;2023-04-15T05:28:40;8.70;99.90
8856;DHT22;4464;50.882;4.730;2023-04-15T05:31:06;8.80;99.90
8856;DHT22;4464;50.882;4.730;2023-04-15T05:33:33;8.80;99.90
8856;DHT22;4464;50.882;4.730;2023-04-15T05:35:58;8.80;99.90
8856;DHT22;4464;50.882;4.730;2023-04-15T05:38:24;8.90;99.90
8856;DHT22;4464;50.882;4.730;2023-04-15T05:40:52;8.90;99.90
8856;DHT22;4464;50.882;4.730;2023-04-15T05:43:23;8.70;99.90
8856;DHT22;4464;50.882;4.730;2023-04-15T05:45:52;8.90;99.90
8856;DHT22;4464;50.882;4.730;2023-04-15T05:48:20;9.00;99.90
8856;DHT22;4464;50.882;4.730;2023-04-15T05:50:46;9.10;99.90
8856;DHT22;4464;50.882;4.730;2023-04-15T05:53:12;9.30;99.90
8856;DHT22;4464;50.882;4.730;2023-04-15T05:55:37;9.40;99.90
8856;DHT22;4464;50.882;4.730;2023-04-15T05:58:03;9.30;99.90
8856;DHT22;4464;50.882;4.730;2023-04-15T06:00:31;9.20;99.90
8856;DHT22;4464;50.882;4.730;2023-04-15T06:02:57;9.10;99.90
8856;DHT22;4464;50.882;4.730;2023-04-15T06:05:25;9.30;99.90
8856;DHT22;4464;50.882;4.730;2023-04-15T06:07:52;9.50;99.90
8856;DHT22;4464;50.882;4.730;2023-04-15T06:10:17;9.30;99.90
8856;DHT22;4464;50.882;4.730;2023-04-15T06:12:43;9.30;99.90
8856;DHT22;4464;50.882;4.730;2023-04-15T06:15:09;9.50;99.90
8856;DHT22;4464;50.882;4.730;2023-04-15T06:17:35;9.60;99.90
8856;DHT22;4464;50.882;4.730;2023-04-15T06:20:02;9.70;99.90
8856;DHT22;4464;50.882;4.730;2023-04-15T06:22:30;9.80;99.90
8856;DHT22;4464;50.882;4.730;2023-04-15T06:24:58;9.80;99.90
8856;DHT22;4464;50.882;4.730;2023-04-15T06:27:24;9.90;99.90
8856;DHT22;4464;50.882;4.730;2023-04-15T06:29:50;10.00;99.90
8856;DHT22;4464;50.882;4.730;2023-04-15T06:32:18;10.00;99.90
8856;DHT22;4464;50.882;4.730;2023-04-15T06:34:44;9.90;99.90
8856;DHT22;4464;50.882;4.730;2023-04-15T06:37:09;9.90;99.90
8856;DHT22;4464;50.882;4.730;2023-04-15T06:39:40;9.80;99.90
8856;DHT22;4464;50.882;4.730;2023-04-15T06:42:06;9.80;99.90
8856;DHT22;4464;50.882;4.730;2023-04-15T06:44:35;9.90;99.90
8856;DHT22;4464;50.882;4.730;2023-04-15T06:47:01;10.10;99.90
8856;DHT22;4464;50.882;4.730;2023-04-15T06:49:27;10.10;99.90
8856;DHT22;4464;50.882;4.730;2023-04-15T06:51:53;10.20;99.90
8856;DHT22;4464;50.882;4.730;2023-04-15T06:54:21;10.20;99.90
8856;DHT22;4464;50.882;4.730;2023-04-15T06:56:46;10.20;99.90
8856;DHT22;4464;50.882;4.730;2023-04-15T06:59:12;10.30;99.90
8856;DHT22;4464;50.882;4.730;2023-04-15T07:01:40;10.30;99.90
8856;DHT22;4464;50.882;4.730;2023-04-15T07:04:06;10.60;99.90
8856;DHT22;4464;50.882;4.730;2023-04-15T07:06:32;10.80;99.90
8856;DHT22;4464;50.882;4.730;2023-04-15T07:08:58;10.90;99.90
8856;DHT22;4464;50.882;4.730;2023-04-15T07:11:25;10.80;99.90
8856;DHT22;4464;50.882;4.730;2023-04-15T07:13:51;10.90;99.90
8856;DHT22;4464;50.882;4.730;2023-04-15T07:16:17;11.20;99.90
8856;DHT22;4464;50.882;4.730;2023-04-15T07:18:42;11.30;99.90
8856;DHT22;4464;50.882;4.730;2023-04-15T07:21:09;11.40;99.90
8856;DHT22;4464;50.882;4.730;2023-04-15T07:23:34;11.40;99.90
8856;DHT22;4464;50.882;4.730;2023-04-15T07:26:03;11.40;99.90
8856;DHT22;4464;50.882;4.730;2023-04-15T07:28:28;11.50;99.90
8856;DHT22;4464;50.882;4.730;2023-04-15T07:30:54;11.50;99.90
8856;DHT22;4464;50.882;4.730;2023-04-15T07:33:22;11.50;99.90
8856;DHT22;4464;50.882;4.730;2023-04-15T07:35:50;11.70;99.90
8856;DHT22;4464;50.882;4.730;2023-04-15T07:38:15;11.80;99.90
8856;DHT22;4464;50.882;4.730;2023-04-15T07:40:41;12.00;99.90
8856;DHT22;4464;50.882;4.730;2023-04-15T07:43:07;12.10;99.90
8856;DHT22;4464;50.882;4.730;2023-04-15T07:45:33;12.30;99.90
8856;DHT22;4464;50.882;4.730;2023-04-15T07:48:03;12.40;99.90
8856;DHT22;4464;50.882;4.730;2023-04-15T07:50:31;12.70;99.90
8856;DHT22;4464;50.882;4.730;2023-04-15T07:52:57;12.90;99.90
8856;DHT22;4464;50.882;4.730;2023-04-15T07:55:22;13.10;99.90
8856;DHT22;4464;50.882;4.730;2023-04-15T07:57:51;13.40;99.90
8856;DHT22;4464;50.882;4.730;2023-04-15T08:00:16;13.60;99.90
8856;DHT22;4464;50.882;4.730;2023-04-15T08:02:43;13.70;99.90
8856;DHT22;4464;50.882;4.730;2023-04-15T08:05:11;13.90;99.90
8856;DHT22;4464;50.882;4.730;2023-04-15T08:07:38;14.00;99.90
8856;DHT22;4464;50.882;4.730;2023-04-15T08:10:04;14.10;99.90
8856;DHT22;4464;50.882;4.730;2023-04-15T08:12:30;14.30;99.90
8856;DHT22;4464;50.882;4.730;2023-04-15T08:14:56;14.30;99.70
8856;DHT22;4464;50.882;4.730;2023-04-15T08:17:22;14.60;99.50
8856;DHT22;4464;50.882;4.730;2023-04-15T08:19:48;15.20;99.70
8856;DHT22;4464;50.882;4.730;2023-04-15T08:22:14;15.90;98.30
8856;DHT22;4464;50.882;4.730;2023-04-15T08:24:40;16.30;97.30
8856;DHT22;4464;50.882;4.730;2023-04-15T08:27:06;16.60;96.30
8856;DHT22;4464;50.882;4.730;2023-04-15T08:29:33;17.30;95.80
8856;DHT22;4464;50.882;4.730;2023-04-15T08:31:59;17.90;94.80
8856;DHT22;4464;50.882;4.730;2023-04-15T08:34:26;18.20;94.00
8856;DHT22;4464;50.882;4.730;2023-04-15T08:36:52;18.20;92.90
8856;DHT22;4464;50.882;4.730;2023-04-15T08:39:17;18.20;92.50
8856;DHT22;4464;50.882;4.730;2023-04-15T08:42:00;18.00;93.10
8856;DHT22;4464;50.882;4.730;2023-04-15T08:44:35;17.70;93.10
8856;DHT22;4464;50.882;4.730;2023-04-15T08:47:07;17.70;93.10
8856;DHT22;4464;50.882;4.730;2023-04-15T08:49:36;18.20;93.20
8856;DHT22;4464;50.882;4.730;2023-04-15T08:52:03;18.20;92.70
8856;DHT22;4464;50.882;4.730;2023-04-15T08:54:32;18.30;92.40
8856;DHT22;4464;50.882;4.730;2023-04-15T08:56:58;18.90;92.40
8856;DHT22;4464;50.882;4.730;2023-04-15T08:59:28;19.60;92.10
8856;DHT22;4464;50.882;4.730;2023-04-15T09:01:59;20.20;91.00
8856;DHT22;4464;50.882;4.730;2023-04-15T09:04:27;20.60;90.50
8856;DHT22;4464;50.882;4.730;2023-04-15T09:06:52;20.10;90.50
8856;DHT22;4464;50.882;4.730;2023-04-15T09:09:21;20.10;90.30
8856;DHT22;4464;50.882;4.730;2023-04-15T09:11:47;19.70;90.60
8856;DHT22;4464;50.882;4.730;2023-04-15T09:14:14;19.90;90.80
8856;DHT22;4464;50.882;4.730;2023-04-15T09:16:59;19.70;90.70
8856;DHT22;4464;50.882;4.730;2023-04-15T09:19:25;19.70;90.90
8856;DHT22;4464;50.882;4.730;2023-04-15T09:21:55;19.40;90.70
8856;DHT22;4464;50.882;4.730;2023-04-15T09:24:24;19.60;90.50
8856;DHT22;4464;50.882;4.730;2023-04-15T09:26:57;19.50;90.40
8856;DHT22;4464;50.882;4.730;2023-04-15T09:29:26;19.90;90.30
8856;DHT22;4464;50.882;4.730;2023-04-15T09:31:54;19.70;90.30
8856;DHT22;4464;50.882;4.730;2023-04-15T09:34:20;20.00;90.40
8856;DHT22;4464;50.882;4.730;2023-04-15T09:36:55;20.30;90.30
8856;DHT22;4464;50.882;4.730;2023-04-15T09:39:23;20.20;89.20
8856;DHT22;4464;50.882;4.730;2023-04-15T09:42:06;19.90;89.90
8856;DHT22;4464;50.882;4.730;2023-04-15T09:44:34;20.20;90.30
8856;DHT22;4464;50.882;4.730;2023-04-15T09:47:00;20.50;90.30
8856;DHT22;4464;50.882;4.730;2023-04-15T09:49:26;20.70;89.30
8856;DHT22;4464;50.882;4.730;2023-04-15T09:52:01;21.00;89.70
8856;DHT22;4464;50.882;4.730;2023-04-15T09:54:35;21.00;86.40
8856;DHT22;4464;50.882;4.730;2023-04-15T09:57:08;20.50;85.50
8856;DHT22;4464;50.882;4.730;2023-04-15T09:59:40;21.00;86.40
8856;DHT22;4464;50.882;4.730;2023-04-15T10:02:05;21.30;84.70
8856;DHT22;4464;50.882;4.730;2023-04-15T10:04:35;21.30;84.30
8856;DHT22;4464;50.882;4.730;2023-04-15T10:07:06;21.80;83.90
8856;DHT22;4464;50.882;4.730;2023-04-15T10:09:35;21.60;82.30
8856;DHT22;4464;50.882;4.730;2023-04-15T10:12:02;21.50;84.20
8856;DHT22;4464;50.882;4.730;2023-04-15T10:14:34;22.20;83.10
8856;DHT22;4464;50.882;4.730;2023-04-15T10:17:04;22.10;80.80
8856;DHT22;4464;50.882;4.730;2023-04-15T10:19:34;22.30;79.90
8856;DHT22;4464;50.882;4.730;2023-04-15T10:22:04;22.70;79.60
8856;DHT22;4464;50.882;4.730;2023-04-15T10:24:31;21.70;77.10
8856;DHT22;4464;50.882;4.730;2023-04-15T10:26:59;22.60;77.90
8856;DHT22;4464;50.882;4.730;2023-04-15T10:29:25;23.50;75.10
8856;DHT22;4464;50.882;4.730;2023-04-15T10:31:54;23.40;67.70
8856;DHT22;4464;50.882;4.730;2023-04-15T10:34:23;23.50;68.60
8856;DHT22;4464;50.882;4.730;2023-04-15T10:36:54;22.80;71.60
8856;DHT22;4464;50.882;4.730;2023-04-15T10:42:12;23.20;74.40
8856;DHT22;4464;50.882;4.730;2023-04-15T10:44:40;22.90;74.10
8856;DHT22;4464;50.882;4.730;2023-04-15T10:47:14;23.30;75.30
8856;DHT22;4464;50.882;4.730;2023-04-15T10:50:00;23.60;69.20
8856;DHT22;4464;50.882;4.730;2023-04-15T10:52:27;23.40;69.20
8856;DHT22;4464;50.882;4.730;2023-04-15T10:57:38;23.30;69.40
8856;DHT22;4464;50.882;4.730;2023-04-15T11:08:06;22.20;73.00
8856;DHT22;4464;50.882;4.730;2023-04-15T11:13:03;24.30;70.10
8856;DHT22;4464;50.882;4.730;2023-04-15T11:18:12;24.90;64.30
8856;DHT22;4464;50.882;4.730;2023-04-15T11:20:42;24.90;60.60
8856;DHT22;4464;50.882;4.730;2023-04-15T11:23:09;24.20;57.60
8856;DHT22;4464;50.882;4.730;2023-04-15T11:25:36;24.10;58.50
8856;DHT22;4464;50.882;4.730;2023-04-15T11:28:03;24.70;58.00
8856;DHT22;4464;50.882;4.730;2023-04-15T11:30:30;24.50;58.40
8856;DHT22;4464;50.882;4.730;2023-04-15T11:32:58;25.00;59.30
8856;DHT22;4464;50.882;4.730;2023-04-15T11:35:24;25.20;59.20
8856;DHT22;4464;50.882;4.730;2023-04-15T11:37:53;25.40;58.50
8856;DHT22;4464;50.882;4.730;2023-04-15T11:40:24;26.00;57.20
8856;DHT22;4464;50.882;4.730;2023-04-15T11:43:13;23.90;56.10
8856;DHT22;4464;50.882;4.730;2023-04-15T11:45:59;22.80;57.20
8856;DHT22;4464;50.882;4.730;2023-04-15T11:48:30;23.00;58.00
8856;DHT22;4464;50.882;4.730;2023-04-15T11:51:02;23.70;56.30
8856;DHT22;4464;50.882;4.730;2023-04-15T11:53:50;24.40;56.70
8856;DHT22;4464;50.882;4.730;2023-04-15T11:56:18;24.20;56.00
8856;DHT22;4464;50.882;4.730;2023-04-15T11:58:45;24.50;57.30
8856;DHT22;4464;50.882;4.730;2023-04-15T12:01:15;24.70;56.70
8856;DHT22;4464;50.882;4.730;2023-04-15T12:03:41;24.80;56.60
8856;DHT22;4464;50.882;4.730;2023-04-15T12:06:21;25.00;56.40
8856;DHT22;4464;50.882;4.730;2023-04-15T12:14:09;26.50;53.70
8856;DHT22;4464;50.882;4.730;2023-04-15T12:19:17;26.60;52.30
8856;DHT22;4464;50.882;4.730;2023-04-15T12:21:47;26.20;51.90
8856;DHT22;4464;50.882;4.730;2023-04-15T12:24:13;25.90;53.20
8856;DHT22;4464;50.882;4.730;2023-04-15T12:26:48;26.70;52.40
8856;DHT22;4464;50.882;4.730;2023-04-15T12:29:15;27.10;53.80
8856;DHT22;4464;50.882;4.730;2023-04-15T12:34:28;27.70;52.80
8856;DHT22;4464;50.882;4.730;2023-04-15T12:36:54;27.30;53.50
8856;DHT22;4464;50.882;4.730;2023-04-15T12:39:27;27.30;52.40
8856;DHT22;4464;50.882;4.730;2023-04-15T12:41:53;27.60;49.60
8856;DHT22;4464;50.882;4.730;2023-04-15T12:44:22;24.80;51.10
8856;DHT22;4464;50.882;4.730;2023-04-15T12:46:49;23.70;53.30
8856;DHT22;4464;50.882;4.730;2023-04-15T12:49:15;22.50;54.30
8856;DHT22;4464;50.882;4.730;2023-04-15T12:51:44;21.70;55.00
8856;DHT22;4464;50.882;4.730;2023-04-15T12:54:10;22.70;54.80
8856;DHT22;4464;50.882;4.730;2023-04-15T12:56:35;22.70;53.20
8856;DHT22;4464;50.882;4.730;2023-04-15T12:59:01;23.70;53.80
8856;DHT22;4464;50.882;4.730;2023-04-15T13:01:27;24.30;54.60
8856;DHT22;4464;50.882;4.730;2023-04-15T13:03:53;25.30;54.70
8856;DHT22;4464;50.882;4.730;2023-04-15T13:06:19;25.80;53.60
8856;DHT22;4464;50.882;4.730;2023-04-15T13:08:45;26.70;51.70
8856;DHT22;4464;50.882;4.730;2023-04-15T13:11:13;26.70;50.90
8856;DHT22;4464;50.882;4.730;2023-04-15T13:13:38;27.40;50.50
8856;DHT22;4464;50.882;4.730;2023-04-15T13:16:06;27.90;49.90
8856;DHT22;4464;50.882;4.730;2023-04-15T13:18:34;26.90;50.80
8856;DHT22;4464;50.882;4.730;2023-04-15T13:21:00;25.20;53.30
8856;DHT22;4464;50.882;4.730;2023-04-15T13:23:28;23.30;54.60
8856;DHT22;4464;50.882;4.730;2023-04-15T13:25:54;23.30;53.20
8856;DHT22;4464;50.882;4.730;2023-04-15T13:28:20;23.60;52.90
8856;DHT22;4464;50.882;4.730;2023-04-15T13:30:48;22.90;54.20
8856;DHT22;4464;50.882;4.730;2023-04-15T13:33:13;22.80;54.10
8856;DHT22;4464;50.882;4.730;2023-04-15T13:35:39;22.00;52.40
8856;DHT22;4464;50.882;4.730;2023-04-15T13:38:07;21.40;54.00
8856;DHT22;4464;50.882;4.730;2023-04-15T13:40:33;21.50;54.00
8856;DHT22;4464;50.882;4.730;2023-04-15T13:42:59;23.60;52.50
8856;DHT22;4464;50.882;4.730;2023-04-15T13:45:26;23.40;54.70
8856;DHT22;4464;50.882;4.730;2023-04-15T13:47:52;23.90;54.70
8856;DHT22;4464;50.882;4.730;2023-04-15T13:50:18;23.50;54.90
8856;DHT22;4464;50.882;4.730;2023-04-15T13:52:43;23.90;55.50
8856;DHT22;4464;50.882;4.730;2023-04-15T13:55:09;23.60;55.40
8856;DHT22;4464;50.882;4.730;2023-04-15T13:57:35;23.50;55.60
8856;DHT22;4464;50.882;4.730;2023-04-15T14:00:02;24.20;55.80
8856;DHT22;4464;50.882;4.730;2023-04-15T14:02:31;25.00;55.10
8856;DHT22;4464;50.882;4.730;2023-04-15T14:04:59;25.20;55.60
8856;DHT22;4464;50.882;4.730;2023-04-15T14:07:25;23.10;57.60
8856;DHT22;4464;50.882;4.730;2023-04-15T14:09:53;22.80;58.90
8856;DHT22;4464;50.882;4.730;2023-04-15T14:12:21;22.60;59.60
8856;DHT22;4464;50.882;4.730;2023-04-15T14:14:50;21.80;59.80
8856;DHT22;4464;50.882;4.730;2023-04-15T14:17:15;22.00;59.90
8856;DHT22;4464;50.882;4.730;2023-04-15T14:19:41;23.20;58.50
8856;DHT22;4464;50.882;4.730;2023-04-15T14:22:07;22.30;58.60
8856;DHT22;4464;50.882;4.730;2023-04-15T14:24:35;21.00;59.70
8856;DHT22;4464;50.882;4.730;2023-04-15T14:27:03;19.90;62.50
8856;DHT22;4464;50.882;4.730;2023-04-15T14:29:29;20.90;63.10
8856;DHT22;4464;50.882;4.730;2023-04-15T14:31:57;22.90;62.20
8856;DHT22;4464;50.882;4.730;2023-04-15T14:34:23;23.50;61.40
8856;DHT22;4464;50.882;4.730;2023-04-15T14:36:50;24.80;59.00
8856;DHT22;4464;50.882;4.730;2023-04-15T14:39:19;22.80;59.50
8856;DHT22;4464;50.882;4.730;2023-04-15T14:41:45;23.50;60.70
8856;DHT22;4464;50.882;4.730;2023-04-15T14:44:11;22.80;59.90
8856;DHT22;4464;50.882;4.730;2023-04-15T14:46:37;21.70;62.70
8856;DHT22;4464;50.882;4.730;2023-04-15T14:49:05;22.00;63.80
8856;DHT22;4464;50.882;4.730;2023-04-15T14:51:33;21.70;63.30
8856;DHT22;4464;50.882;4.730;2023-04-15T14:53:59;21.50;62.60
8856;DHT22;4464;50.882;4.730;2023-04-15T14:56:25;22.40;62.70
8856;DHT22;4464;50.882;4.730;2023-04-15T14:58:53;22.60;60.70
8856;DHT22;4464;50.882;4.730;2023-04-15T15:01:21;22.00;61.30
8856;DHT22;4464;50.882;4.730;2023-04-15T15:03:48;21.20;59.40
8856;DHT22;4464;50.882;4.730;2023-04-15T15:06:13;20.80;59.70
8856;DHT22;4464;50.882;4.730;2023-04-15T15:08:39;22.20;58.70
8856;DHT22;4464;50.882;4.730;2023-04-15T15:11:05;22.90;57.70
8856;DHT22;4464;50.882;4.730;2023-04-15T15:13:33;23.10;58.20
8856;DHT22;4464;50.882;4.730;2023-04-15T15:15:59;23.40;56.90
8856;DHT22;4464;50.882;4.730;2023-04-15T15:18:25;22.50;57.30
8856;DHT22;4464;50.882;4.730;2023-04-15T15:20:51;21.60;57.00
8856;DHT22;4464;50.882;4.730;2023-04-15T15:23:16;22.30;58.70
8856;DHT22;4464;50.882;4.730;2023-04-15T15:25:43;22.80;57.50
8856;DHT22;4464;50.882;4.730;2023-04-15T15:28:08;23.50;59.00
8856;DHT22;4464;50.882;4.730;2023-04-15T15:30:34;23.90;59.50
8856;DHT22;4464;50.882;4.730;2023-04-15T15:33:00;23.70;59.50
8856;DHT22;4464;50.882;4.730;2023-04-15T15:35:28;23.80;59.40
8856;DHT22;4464;50.882;4.730;2023-04-15T15:37:54;24.40;58.50
8856;DHT22;4464;50.882;4.730;2023-04-15T15:40:20;24.10;59.70
8856;DHT22;4464;50.882;4.730;2023-04-15T15:42:45;24.10;58.70
8856;DHT22;4464;50.882;4.730;2023-04-15T15:45:14;23.60;59.00
8856;DHT22;4464;50.882;4.730;2023-04-15T15:47:40;24.00;58.80
8856;DHT22;4464;50.882;4.730;2023-04-15T15:50:12;24.20;58.60
8856;DHT22;4464;50.882;4.730;2023-04-15T15:52:38;23.60;59.00
8856;DHT22;4464;50.882;4.730;2023-04-15T15:55:06;23.10;60.40
8856;DHT22;4464;50.882;4.730;2023-04-15T15:57:34;22.70;60.50
8856;DHT22;4464;50.882;4.730;2023-04-15T16:00:03;22.70;61.20
8856;DHT22;4464;50.882;4.730;2023-04-15T16:02:29;22.70;60.40
8856;DHT22;4464;50.882;4.730;2023-04-15T16:04:56;22.40;61.00
8856;DHT22;4464;50.882;4.730;2023-04-15T16:07:24;21.80;60.30
8856;DHT22;4464;50.882;4.730;2023-04-15T16:09:52;21.40;59.90
8856;DHT22;4464;50.882;4.730;2023-04-15T16:12:18;20.00;63.70
8856;DHT22;4464;50.882;4.730;2023-04-15T16:14:48;18.60;67.00
8856;DHT22;4464;50.882;4.730;2023-04-15T16:17:17;18.30;68.30
8856;DHT22;4464;50.882;4.730;2023-04-15T16:19:42;18.30;68.40
8856;DHT22;4464;50.882;4.730;2023-04-15T16:22:08;17.90;68.60
8856;DHT22;4464;50.882;4.730;2023-04-15T16:24:36;17.60;69.60
8856;DHT22;4464;50.882;4.730;2023-04-15T16:27:02;17.80;70.10
8856;DHT22;4464;50.882;4.730;2023-04-15T16:29:28;17.70;70.60
8856;DHT22;4464;50.882;4.730;2023-04-15T16:31:54;17.90;71.20
8856;DHT22;4464;50.882;4.730;2023-04-15T16:34:20;19.10;70.20
8856;DHT22;4464;50.882;4.730;2023-04-15T16:36:46;19.00;69.10